Time;durP1;ratioP1;P1;durP2;ratioP2;P2;SDS_P1;SDS_P2;PMS_P1;PMS_P2;Temp;Humidity;BMP_temperature;BMP_pressure;BME280_temperature;BME280_humidity;BME280_pressure;Samples;Min_cycle;Max_cycle;Signal;HPM_P1;HPM_P2
2022/06/10 00:00:49;;;;;;;2.10;0.80;;;12.40;99.90;;;;;;6256707;22;20011;-92
2022/06/10 00:03:17;;;;;;;1.90;0.80;;;12.40;99.90;;;;;;6256913;22;20019;-90
2022/06/10 00:05:50;;;;;;;2.15;1.00;;;12.30;99.90;;;;;;6257062;22;20015;-90
2022/06/10 00:08:21;;;;;;;3.40;1.00;;;12.40;99.90;;;;;;6256889;22;20102;-91
2022/06/10 00:10:49;;;;;;;1.42;0.70;;;12.40;99.90;;;;;;6256947;22;20022;-90
2022/06/10 00:13:15;;;;;;;1.95;0.85;;;12.50;99.90;;;;;;6256776;22;20011;-92
2022/06/10 00:15:42;;;;;;;1.52;0.80;;;12.50;99.90;;;;;;6257016;22;20481;-89
2022/06/10 00:18:08;;;;;;;2.50;0.82;;;12.50;99.90;;;;;;6259314;22;20011;-91
2022/06/10 00:20:34;;;;;;;3.55;1.00;;;12.50;99.90;;;;;;6257886;22;20061;-91
2022/06/10 00:23:00;;;;;;;3.58;1.45;;;12.60;99.90;;;;;;6256539;22;20019;-93
2022/06/10 00:25:27;;;;;;;2.35;0.85;;;12.60;99.90;;;;;;6256594;22;20026;-90
2022/06/10 00:27:53;;;;;;;1.75;0.70;;;12.60;99.90;;;;;;6256951;22;20007;-89
2022/06/10 00:30:22;;;;;;;1.57;0.70;;;12.70;99.90;;;;;;6256266;22;20094;-90
2022/06/10 00:32:48;;;;;;;1.75;0.80;;;12.70;99.90;;;;;;6282248;22;20267;-91
2022/06/10 00:35:14;;;;;;;2.17;0.98;;;12.70;99.90;;;;;;6256513;22;20436;-90
2022/06/10 00:37:40;;;;;;;3.05;0.80;;;12.80;99.90;;;;;;6256599;22;20015;-90
2022/06/10 00:40:08;;;;;;;1.98;0.75;;;12.80;99.90;;;;;;6282189;22;20026;-89
2022/06/10 00:42:35;;;;;;;1.63;0.95;;;12.80;99.90;;;;;;6256330;22;20015;-89
2022/06/10 00:45:02;;;;;;;2.00;0.80;;;12.70;99.90;;;;;;6256921;22;20011;-91
2022/06/10 00:47:36;;;;;;;3.00;1.02;;;12.70;99.90;;;;;;6256490;22;20020;-91
2022/06/10 00:50:29;;;;;;;3.65;1.08;;;12.70;99.90;;;;;;6256343;22;20020;-89
2022/06/10 00:53:03;;;;;;;3.40;0.90;;;12.70;99.90;;;;;;6252280;22;20113;-92
2022/06/10 00:55:30;;;;;;;4.55;1.10;;;12.70;99.90;;;;;;6256103;22;20019;-90
2022/06/10 00:58:19;;;;;;;2.90;1.02;;;12.80;99.90;;;;;;6256276;22;20034;-89
2022/06/10 01:00:45;;;;;;;2.30;1.00;;;12.70;99.90;;;;;;6281056;22;20100;-89
2022/06/10 01:03:11;;;;;;;4.25;1.15;;;12.70;99.90;;;;;;6256519;22;20022;-89
2022/06/10 01:05:37;;;;;;;4.27;2.00;;;12.70;99.90;;;;;;6256053;22;20019;-92
2022/06/10 01:08:15;;;;;;;3.35;1.00;;;12.70;99.90;;;;;;6255971;22;20015;-91
2022/06/10 01:14:16;;;;;;;2.58;1.05;;;12.70;99.90;;;;;;6130165;23;20052;-91
2022/06/10 01:17:28;;;;;;;1.88;1.08;;;12.70;99.90;;;;;;6251704;22;20055;-90
2022/06/10 01:20:28;;;;;;;;;;;;;;;;;;;;;
2022/06/10 01:23:32;;;;;;;4.50;1.42;;;12.60;99.90;;;;;;6281735;22;20030;-91
2022/06/10 01:30:01;;;;;;;1.92;1.15;;;12.60;99.90;;;;;;6281555;22;20026;-92
2022/06/10 01:33:09;;;;;;;2.35;1.20;;;12.60;99.90;;;;;;6256070;22;20023;-92
2022/06/10 01:48:46;;;;;;;2.55;1.02;;;12.50;99.90;;;;;;6327262;22;20023;-92
2022/06/10 02:16:43;;;;;;;3.75;1.15;;;12.40;99.90;;;;;;6321383;22;20098;-93
2022/06/10 02:19:28;;;;;;;3.75;1.13;;;12.40;99.90;;;;;;6286340;22;20023;-93
2022/06/10 02:22:01;;;;;;;2.47;0.93;;;12.40;99.90;;;;;;6287209;22;20075;-92
2022/06/10 02:28:12;;;;;;;2.85;1.30;;;12.40;99.90;;;;;;6343207;22;20041;-95
2022/06/10 02:30:49;;;;;;;3.70;0.88;;;12.40;99.90;;;;;;6286278;22;20042;-94
2022/06/10 02:41:09;;;;;;;2.40;1.00;;;12.30;99.90;;;;;;6308078;22;20023;-93
2022/06/10 03:05:09;;;;;;;3.30;1.05;;;12.10;99.90;;;;;;6338453;22;20015;-93
2022/06/10 03:14:01;;;;;;;2.28;1.00;;;12.10;99.90;;;;;;6336056;22;20048;-92
2022/06/10 03:20:07;;;;;;;3.00;1.10;;;12.00;99.90;;;;;;6258504;22;20025;-92
2022/06/10 03:23:00;;;;;;;2.33;0.95;;;11.90;99.90;;;;;;6287802;22;20011;-92
2022/06/10 03:25:41;;;;;;;3.75;1.08;;;12.00;99.90;;;;;;6287706;22;20344;-94
2022/06/10 03:28:10;;;;;;;2.83;1.23;;;12.00;99.90;;;;;;6287918;22;20019;-92
2022/06/10 03:31:04;;;;;;;3.22;1.27;;;12.00;99.90;;;;;;6313712;22;20014;-91
2022/06/10 03:33:57;;;;;;;5.70;1.27;;;12.00;99.90;;;;;;6288194;22;20014;-92
2022/06/10 03:36:26;;;;;;;6.00;1.40;;;12.00;99.90;;;;;;6272748;22;20113;-93
2022/06/10 03:39:04;;;;;;;;;;;;;;;;;;;;;
2022/06/10 03:41:29;;;;;;;4.95;1.60;;;12.00;99.90;;;;;;6313751;22;20014;-92
2022/06/10 03:43:57;;;;;;;3.03;1.50;;;12.10;99.90;;;;;;6288595;22;20093;-92
2022/06/10 03:46:26;;;;;;;3.13;1.33;;;12.10;99.90;;;;;;6287936;22;20011;-92
2022/06/10 03:48:54;;;;;;;3.00;1.73;;;12.10;99.90;;;;;;6313861;22;20021;-92
2022/06/10 03:52:04;;;;;;;3.05;1.30;;;12.20;99.90;;;;;;6287724;22;20011;-94
2022/06/10 03:54:30;;;;;;;2.88;1.63;;;12.20;99.90;;;;;;6287576;22;20042;-92
2022/06/10 04:02:53;;;;;;;3.30;1.35;;;12.30;99.90;;;;;;6309510;22;20076;-93
2022/06/10 04:05:19;;;;;;;3.10;1.00;;;12.30;99.90;;;;;;6257092;22;20019;-94
2022/06/10 04:30:32;;;;;;;4.38;1.20;;;12.60;99.90;;;;;;6264946;22;20089;-92
2022/06/10 04:32:59;;;;;;;5.57;1.48;;;12.70;99.90;;;;;;6287176;22;20079;-90
2022/06/10 04:35:25;;;;;;;2.40;0.82;;;12.70;99.90;;;;;;6287318;22;20570;-94
2022/06/10 04:37:52;;;;;;;;;;;12.70;99.90;;;;;;6288122;22;20057;-90
2022/06/10 04:40:22;;;;;;;2.10;1.00;;;12.80;99.90;;;;;;6312924;22;19918;-91
2022/06/10 04:42:49;;;;;;;6.93;1.60;;;12.90;99.90;;;;;;6313217;22;20385;-92
2022/06/10 04:45:18;;;;;;;2.70;1.08;;;12.90;99.90;;;;;;6312563;22;20018;-90
2022/06/10 04:47:43;;;;;;;2.17;0.82;;;13.00;99.90;;;;;;6286562;22;20019;-90
2022/06/10 04:50:11;;;;;;;3.05;0.98;;;13.10;99.90;;;;;;6286298;22;20075;-90
2022/06/10 04:52:40;;;;;;;4.13;1.10;;;13.10;99.90;;;;;;6312742;22;20014;-93
2022/06/10 04:55:07;;;;;;;2.08;1.00;;;13.20;99.90;;;;;;6285578;22;20015;-92
2022/06/10 04:57:33;;;;;;;2.30;1.00;;;13.20;99.90;;;;;;6286978;22;20147;-92
2022/06/10 05:00:30;;;;;;;2.95;1.00;;;13.30;99.90;;;;;;6287767;22;20015;-93
2022/06/10 05:05:26;;;;;;;6.15;1.08;;;13.50;99.90;;;;;;6338440;22;20015;-92
2022/06/10 05:07:52;;;;;;;4.20;1.23;;;13.70;99.90;;;;;;6286256;22;20478;-91
2022/06/10 05:10:19;;;;;;;3.65;0.98;;;13.90;99.90;;;;;;6285127;22;20018;-92
2022/06/10 05:12:45;;;;;;;4.72;1.00;;;14.00;99.90;;;;;;6286464;22;20045;-91
2022/06/10 05:15:43;;;;;;;3.25;1.00;;;14.10;99.90;;;;;;6311983;22;20347;-90
2022/06/10 05:18:09;;;;;;;2.60;1.00;;;14.20;99.90;;;;;;6285937;22;20015;-92
2022/06/10 05:20:40;;;;;;;6.85;1.58;;;14.30;99.90;;;;;;6285989;22;20010;-89
2022/06/10 05:23:08;;;;;;;4.80;1.33;;;14.30;99.90;;;;;;6317523;22;20018;-91
2022/06/10 05:25:35;;;;;;;6.28;1.30;;;14.30;99.90;;;;;;6286953;22;20015;-94
2022/06/10 05:28:01;;;;;;;4.72;1.13;;;14.30;99.90;;;;;;6288733;22;20011;-95
2022/06/10 05:30:32;;;;;;;4.43;0.90;;;14.30;99.90;;;;;;6344840;22;20064;-91
2022/06/10 05:33:22;;;;;;;4.35;1.10;;;14.40;99.90;;;;;;6340491;22;20344;-94
2022/06/10 05:36:17;;;;;;;3.30;1.25;;;14.40;99.90;;;;;;6287047;22;20015;-94
2022/06/10 05:38:54;;;;;;;4.03;0.85;;;14.40;99.90;;;;;;6286551;22;20064;-94
2022/06/10 05:44:03;;;;;;;7.03;1.20;;;14.40;99.90;;;;;;6311624;22;20015;-91
2022/06/10 05:46:29;;;;;;;4.30;1.08;;;14.50;99.90;;;;;;6286455;22;20014;-91
2022/06/10 05:48:55;;;;;;;3.97;1.33;;;14.50;99.90;;;;;;6286543;22;20022;-91
2022/06/10 05:51:21;;;;;;;1.80;1.00;;;14.50;99.90;;;;;;6286371;22;20255;-91
2022/06/10 05:53:46;;;;;;;4.53;1.03;;;14.50;99.90;;;;;;6286522;22;20336;-91
2022/06/10 05:56:12;;;;;;;3.50;1.10;;;14.50;99.90;;;;;;6286526;22;20253;-91
2022/06/10 05:58:37;;;;;;;7.60;0.97;;;14.60;99.90;;;;;;6286469;22;20011;-91
2022/06/10 06:01:03;;;;;;;2.43;0.83;;;14.60;99.90;;;;;;6286366;22;20072;-91
2022/06/10 06:03:29;;;;;;;3.38;1.17;;;14.70;99.90;;;;;;6312227;22;20015;-90
2022/06/10 06:05:54;;;;;;;4.20;0.93;;;14.70;99.90;;;;;;6286190;22;20022;-91
2022/06/10 06:08:21;;;;;;;2.23;1.00;;;14.70;99.90;;;;;;6284195;22;20257;-91
2022/06/10 06:10:46;;;;;;;3.42;1.08;;;14.70;99.90;;;;;;6284659;22;20014;-90
2022/06/10 06:13:18;;;;;;;3.40;1.05;;;14.80;99.90;;;;;;6285286;22;20071;-91
2022/06/10 06:15:51;;;;;;;3.03;1.08;;;14.80;99.90;;;;;;6284481;22;20462;-92
2022/06/10 06:18:16;;;;;;;5.25;1.40;;;14.80;99.90;;;;;;6285712;22;20011;-91
2022/06/10 06:20:42;;;;;;;3.33;1.10;;;14.80;99.90;;;;;;6285385;22;20557;-93
2022/06/10 06:23:20;;;;;;;4.38;1.10;;;14.80;99.90;;;;;;6285596;22;20363;-92
2022/06/10 06:25:46;;;;;;;3.72;1.00;;;14.90;99.90;;;;;;6285929;22;20132;-91
2022/06/10 06:28:23;;;;;;;2.45;1.05;;;14.90;99.90;;;;;;6286672;22;20019;-90
2022/06/10 06:30:49;;;;;;;3.67;1.30;;;14.90;99.90;;;;;;6294159;22;20007;-91
2022/06/10 06:33:17;;;;;;;6.13;1.13;;;15.00;99.90;;;;;;6307247;22;20152;-91
2022/06/10 06:35:50;;;;;;;4.35;1.00;;;15.00;99.90;;;;;;6286428;22;20405;-91
2022/06/10 06:38:16;;;;;;;4.10;1.25;;;15.10;99.90;;;;;;6286438;22;20015;-90
2022/06/10 06:40:43;;;;;;;3.53;1.27;;;15.10;99.90;;;;;;6286172;22;20075;-90
2022/06/10 06:43:09;;;;;;;3.75;1.25;;;15.20;99.90;;;;;;6286192;22;20475;-90
2022/06/10 06:45:36;;;;;;;3.70;1.17;;;15.20;99.90;;;;;;6286667;22;20019;-90
2022/06/10 06:48:05;;;;;;;4.43;1.13;;;15.30;99.90;;;;;;6286286;22;20344;-90
2022/06/10 06:50:32;;;;;;;3.10;1.40;;;15.30;99.90;;;;;;6286136;22;20028;-91
2022/06/10 06:52:58;;;;;;;4.35;1.55;;;15.30;99.90;;;;;;6311896;22;20085;-91
2022/06/10 06:55:24;;;;;;;4.43;1.65;;;15.40;99.90;;;;;;6286194;22;20057;-90
2022/06/10 06:57:50;;;;;;;6.40;1.47;;;15.40;99.90;;;;;;6286506;22;20015;-89
2022/06/10 07:00:17;;;;;;;4.95;1.42;;;15.40;99.90;;;;;;6286000;22;20335;-91
2022/06/10 07:02:43;;;;;;;4.72;1.40;;;15.40;99.90;;;;;;6286089;22;20021;-90
2022/06/10 07:05:12;;;;;;;4.53;1.65;;;15.40;99.90;;;;;;6296207;22;20019;-90
2022/06/10 07:07:41;;;;;;;4.38;1.77;;;15.40;99.90;;;;;;6306778;22;20046;-89
2022/06/10 07:10:08;;;;;;;3.55;1.67;;;15.40;99.90;;;;;;6288028;22;20019;-89
2022/06/10 07:12:33;;;;;;;4.63;1.58;;;15.40;99.90;;;;;;6285978;22;20076;-90
2022/06/10 07:14:59;;;;;;;6.30;1.70;;;15.40;99.90;;;;;;6286033;22;20019;-88
2022/06/10 07:17:25;;;;;;;5.60;2.17;;;15.40;99.90;;;;;;6284688;22;20237;-90
2022/06/10 07:19:52;;;;;;;4.90;1.70;;;15.40;99.90;;;;;;6285931;22;20050;-92
2022/06/10 07:22:18;;;;;;;5.22;1.85;;;15.40;99.90;;;;;;6285778;22;20017;-92
2022/06/10 07:24:43;;;;;;;6.57;2.42;;;15.50;99.90;;;;;;6286051;22;20022;-88
2022/06/10 07:27:11;;;;;;;5.32;1.88;;;15.50;99.90;;;;;;6286084;22;20332;-90
2022/06/10 07:29:37;;;;;;;4.13;1.52;;;15.50;99.90;;;;;;6285838;22;20040;-90
2022/06/10 07:32:03;;;;;;;7.10;1.42;;;15.60;99.90;;;;;;6285934;22;20018;-90
2022/06/10 07:35:20;;;;;;;;;;;;;;;;;;;;;
2022/06/10 07:38:11;;;;;;;5.80;1.80;;;15.70;99.90;;;;;;6312249;22;20019;-91
2022/06/10 07:43:31;;;;;;;4.05;1.70;;;15.80;99.90;;;;;;6313940;22;20025;-91
2022/06/10 07:48:57;;;;;;;4.13;1.48;;;15.80;99.90;;;;;;6295878;22;20026;-90
2022/06/10 07:51:33;;;;;;;3.40;1.60;;;15.80;99.90;;;;;;6286492;22;20015;-91
2022/06/10 07:54:12;;;;;;;3.53;1.50;;;15.90;99.90;;;;;;6313989;22;20030;-91
2022/06/10 07:56:39;;;;;;;4.95;2.05;;;15.90;99.90;;;;;;6285690;22;20019;-90
2022/06/10 07:59:06;;;;;;;5.53;1.90;;;15.90;99.90;;;;;;6285587;22;20474;-90
2022/06/10 08:01:35;;;;;;;4.80;1.63;;;15.90;99.90;;;;;;6285760;22;20094;-91
2022/06/10 08:04:01;;;;;;;7.28;2.17;;;16.00;99.90;;;;;;6285980;22;20015;-91
2022/06/10 08:06:29;;;;;;;5.25;1.85;;;16.00;99.90;;;;;;6287750;22;20022;-91
2022/06/10 08:08:55;;;;;;;3.92;2.25;;;16.10;99.90;;;;;;6313071;22;20019;-90
2022/06/10 08:11:21;;;;;;;5.20;2.28;;;16.10;99.90;;;;;;6287477;22;20050;-91
2022/06/10 08:13:50;;;;;;;5.28;2.00;;;16.20;99.90;;;;;;6287165;22;20011;-91
2022/06/10 08:16:22;;;;;;;5.60;2.00;;;16.20;99.90;;;;;;6287439;22;20019;-89
2022/06/10 08:18:58;;;;;;;6.88;2.20;;;16.30;99.90;;;;;;6287336;22;20054;-91
2022/06/10 08:24:08;;;;;;;4.75;2.10;;;16.30;99.90;;;;;;6312921;22;20452;-90
2022/06/10 08:26:54;;;;;;;4.95;2.20;;;16.30;99.90;;;;;;6287581;22;20050;-91
2022/06/10 08:29:21;;;;;;;4.28;2.30;;;16.20;99.90;;;;;;6286925;22;20019;-90
2022/06/10 08:31:46;;;;;;;;;;;16.20;99.90;;;;;;6287922;22;20313;-91
2022/06/10 08:34:13;;;;;;;4.38;1.90;;;16.20;99.90;;;;;;6287079;22;19953;-91
2022/06/10 08:36:40;;;;;;;7.53;2.33;;;16.20;99.90;;;;;;6287248;22;20075;-89
2022/06/10 08:39:06;;;;;;;4.45;2.13;;;16.20;99.90;;;;;;6287005;22;20333;-88
2022/06/10 08:42:06;;;;;;;5.13;2.40;;;16.20;99.90;;;;;;6287531;22;20019;-90
2022/06/10 08:44:50;;;;;;;5.07;2.15;;;16.10;99.90;;;;;;6287451;22;20014;-90
2022/06/10 08:47:40;;;;;;;5.22;2.33;;;16.10;99.90;;;;;;6287017;22;20021;-91
2022/06/10 08:50:18;;;;;;;5.15;2.05;;;16.10;99.90;;;;;;6287037;22;20022;-90
2022/06/10 08:53:25;;;;;;;4.63;2.17;;;16.20;99.90;;;;;;6287178;22;20017;-91
2022/06/10 08:56:08;;;;;;;5.03;2.35;;;16.20;99.90;;;;;;6287072;22;20022;-90
2022/06/10 08:58:54;;;;;;;5.43;2.80;;;16.30;99.90;;;;;;6287189;22;20045;-89
2022/06/10 09:01:22;;;;;;;5.43;2.42;;;16.30;99.90;;;;;;6286899;22;20014;-91
2022/06/10 09:03:57;;;;;;;5.65;2.45;;;16.40;99.90;;;;;;6286742;22;20014;-90
2022/06/10 09:06:31;;;;;;;5.70;2.85;;;16.50;99.90;;;;;;6286613;22;20022;-89
2022/06/10 09:10:03;;;;;;;5.30;2.72;;;16.50;99.90;;;;;;6287985;22;20045;-90
2022/06/10 09:13:10;;;;;;;4.85;2.38;;;16.60;99.90;;;;;;6210079;23;20031;-91
2022/06/10 09:15:47;;;;;;;5.13;2.45;;;16.60;99.90;;;;;;6169851;23;20052;-93
2022/06/10 09:23:41;;;;;;;4.40;2.58;;;16.60;99.90;;;;;;6308679;22;20024;-88
2022/06/10 09:26:12;;;;;;;6.15;3.20;;;16.60;99.90;;;;;;6256137;22;20112;-88
2022/06/10 09:28:42;;;;;;;6.20;3.20;;;16.60;99.90;;;;;;6256061;22;20090;-90
2022/06/10 09:31:23;;;;;;;5.97;3.10;;;16.70;99.90;;;;;;6256007;22;20400;-90
2022/06/10 09:34:06;;;;;;;7.78;2.67;;;16.80;99.90;;;;;;6255872;22;20460;-91
2022/06/10 09:36:55;;;;;;;5.43;2.72;;;16.80;99.90;;;;;;6255804;22;20054;-90
2022/06/10 09:42:54;;;;;;;7.80;2.65;;;16.90;99.90;;;;;;6281472;22;20023;-88
2022/06/10 09:45:44;;;;;;;6.95;2.83;;;17.00;99.90;;;;;;6255833;22;20060;-89
2022/06/10 09:48:32;;;;;;;5.05;2.25;;;17.10;99.90;;;;;;6255873;22;20019;-90
2022/06/10 09:51:19;;;;;;;;;;;17.10;99.90;;;;;;6258631;22;20011;-89
2022/06/10 09:53:53;;;;;;;5.63;2.55;;;17.10;99.90;;;;;;6254252;22;19915;-91
2022/06/10 09:56:28;;;;;;;5.13;2.63;;;17.10;99.90;;;;;;6255692;22;20094;-89
2022/06/10 09:59:00;;;;;;;7.07;3.10;;;17.10;99.90;;;;;;6255901;22;20015;-91
2022/06/10 10:02:10;;;;;;;5.32;2.45;;;17.10;99.90;;;;;;6255379;22;20019;-89
2022/06/10 10:05:28;;;;;;;5.60;2.58;;;17.10;99.90;;;;;;6255208;22;20011;-91
2022/06/10 10:08:17;;;;;;;6.25;2.53;;;17.10;99.90;;;;;;6104846;23;21030;-90
2022/06/10 10:11:20;;;;;;;3.72;2.45;;;17.10;99.90;;;;;;6091455;23;20071;-91
2022/06/10 10:14:02;;;;;;;5.93;3.03;;;17.10;99.90;;;;;;6250707;22;20562;-89
2022/06/10 10:16:50;;;;;;;4.93;2.80;;;17.10;99.90;;;;;;6254953;22;20045;-90
2022/06/10 10:26:37;;;;;;;6.45;3.08;;;17.30;99.90;;;;;;6235984;22;20161;-89
2022/06/10 10:29:23;;;;;;;5.05;3.03;;;17.30;99.90;;;;;;6224703;22;20020;-90
2022/06/10 10:32:14;;;;;;;6.63;3.07;;;17.30;99.90;;;;;;6225108;22;20020;-89
2022/06/10 10:34:49;;;;;;;8.60;2.97;;;17.40;99.90;;;;;;6223749;22;20019;-91
2022/06/10 10:37:42;;;;;;;6.88;3.28;;;17.40;99.90;;;;;;6222594;22;20441;-90
2022/06/10 10:40:21;;;;;;;4.93;2.63;;;17.50;99.90;;;;;;6225175;22;20015;-90
2022/06/10 10:43:18;;;;;;;7.03;3.15;;;17.50;99.90;;;;;;6224049;22;20445;-91
2022/06/10 10:49:43;;;;;;;6.57;3.10;;;17.50;99.90;;;;;;6249991;22;20149;-91
2022/06/10 10:52:21;;;;;;;6.03;2.65;;;17.60;99.90;;;;;;6225084;22;20019;-88
2022/06/10 10:58:41;;;;;;;8.02;3.33;;;17.80;99.90;;;;;;6213533;22;20045;-90
2022/06/10 11:01:43;;;;;;;5.32;2.97;;;17.90;99.90;;;;;;6133624;23;20096;-89
2022/06/10 11:04:11;;;;;;;7.10;3.05;;;17.90;99.90;;;;;;6224802;22;20388;-89
2022/06/10 11:06:38;;;;;;;5.38;3.00;;;17.90;99.90;;;;;;6224439;22;20090;-89
2022/06/10 11:09:26;;;;;;;6.18;2.88;;;17.90;99.90;;;;;;6224305;22;20007;-89
2022/06/10 11:12:02;;;;;;;6.50;3.30;;;17.90;99.90;;;;;;6224562;22;20054;-90
2022/06/10 11:14:35;;;;;;;5.68;3.13;;;17.90;99.90;;;;;;6224587;22;20322;-89
2022/06/10 11:17:14;;;;;;;7.20;3.42;;;17.90;99.90;;;;;;6225126;22;20054;-90
2022/06/10 11:19:57;;;;;;;6.68;2.67;;;18.00;99.90;;;;;;6232312;22;20020;-90
2022/06/10 11:22:27;;;;;;;6.03;2.60;;;17.90;99.90;;;;;;6224675;22;20065;-90
2022/06/10 11:25:03;;;;;;;4.78;2.90;;;17.90;99.90;;;;;;6246781;22;20023;-89
2022/06/10 11:27:37;;;;;;;6.13;2.67;;;17.90;99.90;;;;;;6255000;22;20050;-89
2022/06/10 11:30:13;;;;;;;5.95;3.10;;;17.90;99.90;;;;;;6252866;22;20019;-89
2022/06/10 11:32:38;;;;;;;5.45;2.88;;;18.00;99.90;;;;;;6254849;22;20019;-89
2022/06/10 11:35:22;;;;;;;7.85;3.58;;;18.10;99.90;;;;;;6254706;22;20013;-90
2022/06/10 11:37:52;;;;;;;5.88;3.78;;;18.10;99.90;;;;;;6254418;22;20015;-88
2022/06/10 11:40:41;;;;;;;5.95;2.78;;;18.10;99.90;;;;;;6256333;22;20444;-89
2022/06/10 11:43:28;;;;;;;6.05;2.88;;;18.10;99.90;;;;;;6248320;22;20022;-89
2022/06/10 11:46:12;;;;;;;5.05;2.30;;;18.10;99.90;;;;;;6256546;22;20015;-89
2022/06/10 11:48:51;;;;;;;4.03;2.22;;;18.00;99.90;;;;;;6256710;22;20011;-89
2022/06/10 11:51:21;;;;;;;5.57;2.50;;;18.00;99.90;;;;;;6282869;22;20026;-90
2022/06/10 11:53:59;;;;;;;4.43;2.28;;;18.10;99.90;;;;;;6274406;22;19999;-89
2022/06/10 12:00:03;;;;;;;5.38;2.28;;;18.20;99.90;;;;;;6281964;22;20116;-90
2022/06/10 12:03:02;;;;;;;4.40;2.58;;;18.20;99.90;;;;;;6256411;22;20015;-90
2022/06/10 12:05:50;;;;;;;3.75;2.20;;;18.30;99.90;;;;;;6256721;22;20026;-90
2022/06/10 12:08:49;;;;;;;4.80;2.70;;;18.30;99.90;;;;;;6282228;22;20073;-91
2022/06/10 12:11:33;;;;;;;;;;;18.30;99.90;;;;;;6259363;22;20377;-92
2022/06/10 12:14:19;;;;;;;4.03;2.13;;;18.30;99.90;;;;;;6256773;22;19937;-92
2022/06/10 12:17:15;;;;;;;5.10;2.60;;;18.40;99.90;;;;;;6255864;22;20034;-90
2022/06/10 12:19:54;;;;;;;5.15;2.40;;;18.60;99.90;;;;;;6256470;22;20012;-92
2022/06/10 12:22:20;;;;;;;4.57;2.40;;;18.80;99.90;;;;;;6257094;22;20023;-91
2022/06/10 12:25:02;;;;;;;;;;;;;;;;;;;;;
2022/06/10 12:27:38;;;;;;;6.05;2.78;;;19.10;99.90;;;;;;6282082;22;20025;-90
2022/06/10 12:30:42;;;;;;;7.05;2.47;;;19.20;99.90;;;;;;6257086;22;20026;-90
2022/06/10 12:33:21;;;;;;;6.22;2.45;;;19.20;99.90;;;;;;6249740;22;20015;-91
2022/06/10 12:36:12;;;;;;;4.10;2.78;;;19.10;99.90;;;;;;6256316;22;20025;-90
2022/06/10 12:39:42;;;;;;;;;;;;;;;;;;;;;
2022/06/10 12:41:47;;;;;;;4.03;2.13;;;19.00;99.90;;;;;;6262762;22;20019;-90
2022/06/10 12:49:44;;;;;;;5.68;2.40;;;19.00;99.90;;;;;;6339483;22;20080;-91
2022/06/10 12:52:27;;;;;;;5.68;2.55;;;19.00;99.90;;;;;;6287076;22;20015;-91
2022/06/10 12:55:25;;;;;;;4.63;2.25;;;19.00;99.90;;;;;;6286577;22;20015;-90
2022/06/10 12:57:53;;;;;;;4.63;2.28;;;19.00;99.90;;;;;;6312313;22;20013;-91
2022/06/10 13:20:38;;;;;;;5.55;2.40;;;19.20;99.90;;;;;;6323694;22;20496;-89
2022/06/10 13:23:26;;;;;;;5.35;2.65;;;19.30;99.90;;;;;;6285469;22;20019;-88
2022/06/10 13:26:15;;;;;;;5.63;2.45;;;19.30;99.90;;;;;;6284430;22;20013;-88
2022/06/10 13:28:45;;;;;;;7.35;2.25;;;19.40;99.90;;;;;;6285389;22;20061;-88
2022/06/10 13:31:16;;;;;;;7.10;2.47;;;19.30;99.90;;;;;;6308543;22;20022;-88
2022/06/10 13:34:17;;;;;;;5.40;2.33;;;19.40;99.90;;;;;;6285350;22;20429;-89
2022/06/10 13:36:49;;;;;;;3.92;1.77;;;19.50;99.90;;;;;;6311268;22;20015;-89
2022/06/10 13:39:31;;;;;;;4.85;2.35;;;19.50;99.90;;;;;;6285284;22;20386;-89
2022/06/10 13:41:58;;;;;;;5.45;2.40;;;19.50;99.90;;;;;;6284907;22;20030;-91
2022/06/10 13:44:33;;;;;;;3.47;1.70;;;19.60;99.90;;;;;;6286118;22;20063;-88
2022/06/10 13:47:01;;;;;;;3.25;1.77;;;19.80;99.90;;;;;;6286351;22;20019;-88
2022/06/10 13:55:29;;;;;;;1.98;1.20;;;20.10;99.90;;;;;;6337480;22;20019;-88
2022/06/10 13:57:56;;;;;;;4.25;1.08;;;20.40;99.90;;;;;;6283712;22;20148;-90
2022/06/10 14:00:31;;;;;;;2.15;1.20;;;20.60;99.90;;;;;;6290820;22;20022;-89
2022/06/10 14:02:59;;;;;;;2.95;0.90;;;20.70;99.90;;;;;;6336061;22;20045;-87
2022/06/10 14:05:30;;;;;;;2.95;0.88;;;20.80;99.90;;;;;;6286857;22;20382;-89
2022/06/10 14:08:00;;;;;;;3.25;0.90;;;20.90;99.90;;;;;;6286018;22;20007;-90
2022/06/10 14:10:49;;;;;;;1.20;0.70;;;21.00;99.90;;;;;;6285995;22;20022;-89
2022/06/10 14:13:17;;;;;;;2.60;1.00;;;21.10;99.90;;;;;;6286178;22;20093;-89
2022/06/10 14:15:52;;;;;;;2.15;0.77;;;21.20;99.90;;;;;;6285974;22;20022;-88
2022/06/10 14:18:23;;;;;;;2.10;0.60;;;21.30;99.90;;;;;;6285917;22;20068;-90
2022/06/10 14:20:53;;;;;;;1.83;0.60;;;21.50;99.90;;;;;;6286085;22;20452;-90
2022/06/10 14:23:37;;;;;;;1.55;0.68;;;21.50;99.90;;;;;;6285975;22;20084;-90
2022/06/10 14:26:32;;;;;;;2.00;0.70;;;21.50;99.90;;;;;;6285728;22;20516;-92
2022/06/10 14:29:20;;;;;;;1.55;0.80;;;21.40;99.90;;;;;;6243036;22;20019;-90
2022/06/10 14:31:49;;;;;;;3.00;1.00;;;21.20;99.90;;;;;;6285493;22;20098;-93
2022/06/10 14:34:18;;;;;;;1.70;0.77;;;21.10;99.90;;;;;;6285832;22;20040;-88
2022/06/10 14:37:00;;;;;;;2.58;0.90;;;21.10;99.90;;;;;;6337053;22;20002;-88
2022/06/10 14:39:27;;;;;;;2.13;0.75;;;21.10;99.90;;;;;;6292609;22;20072;-89
2022/06/10 14:42:02;;;;;;;2.67;0.90;;;21.20;99.90;;;;;;6285726;22;20018;-88
2022/06/10 14:44:29;;;;;;;3.60;1.02;;;21.30;99.90;;;;;;6285546;22;20101;-90
2022/06/10 14:47:43;;;;;;;;;;;;;;;;;;;;;
2022/06/10 15:03:34;;;;;;;3.17;0.97;;;20.90;99.90;;;;;;6147108;22;1356891;-90
2022/06/10 15:06:24;;;;;;;2.85;0.70;;;20.90;99.90;;;;;;6244687;22;20350;-91
2022/06/10 15:09:13;;;;;;;3.67;1.20;;;20.90;99.90;;;;;;6289591;22;20015;-90
2022/06/10 16:07:35;;;;;;;1.58;0.55;;;20.60;99.90;;;;;;6275182;22;20024;-87
2022/06/10 16:10:01;;;;;;;2.95;0.70;;;20.60;99.90;;;;;;6225103;22;20512;-88
2022/06/10 16:15:21;;;;;;;1.95;0.60;;;20.60;99.90;;;;;;6250824;22;20067;-89
2022/06/10 16:17:48;;;;;;;2.00;0.60;;;20.50;99.90;;;;;;6225632;22;20015;-91
2022/06/10 16:20:16;;;;;;;3.17;0.68;;;20.50;99.90;;;;;;6225302;22;20065;-89
2022/06/10 16:22:41;;;;;;;2.55;0.80;;;20.50;99.90;;;;;;6224605;22;20456;-88
2022/06/10 16:25:09;;;;;;;3.45;0.73;;;20.40;99.90;;;;;;6225776;22;20043;-90
2022/06/10 16:27:36;;;;;;;1.73;0.60;;;20.40;99.90;;;;;;6225914;22;20407;-89
2022/06/10 16:30:04;;;;;;;4.47;0.70;;;20.40;99.90;;;;;;6225917;22;20016;-90
2022/06/10 16:32:29;;;;;;;1.58;0.32;;;20.40;99.90;;;;;;6226075;22;20333;-89
2022/06/10 16:34:56;;;;;;;3.33;0.93;;;20.40;99.90;;;;;;6225655;22;20024;-91
2022/06/10 16:37:22;;;;;;;2.30;0.60;;;20.40;99.90;;;;;;6226009;22;20022;-89
2022/06/10 16:39:48;;;;;;;0.82;0.40;;;20.40;99.90;;;;;;6225907;22;20011;-89
2022/06/10 16:42:55;;;;;;;2.10;0.55;;;20.40;99.90;;;;;;6251359;22;20019;-92
2022/06/10 17:11:52;;;;;;;3.75;0.60;;;20.40;99.90;;;;;;6308445;22;20376;-88
2022/06/10 17:14:26;;;;;;;1.90;0.75;;;20.30;99.90;;;;;;6256595;22;20019;-88
2022/06/10 17:16:54;;;;;;;2.95;0.60;;;20.30;99.90;;;;;;6281396;22;20019;-88
2022/06/10 17:19:21;;;;;;;4.07;0.57;;;20.30;99.90;;;;;;6264679;22;20034;-88
2022/06/10 17:21:47;;;;;;;2.72;0.80;;;20.30;99.90;;;;;;6273288;22;20471;-86
2022/06/10 17:24:15;;;;;;;4.40;0.93;;;20.30;99.90;;;;;;6257405;22;20019;-87
2022/06/10 17:26:47;;;;;;;1.88;0.70;;;20.30;99.90;;;;;;6280784;22;20015;-90
2022/06/10 17:29:34;;;;;;;1.80;0.50;;;20.20;99.90;;;;;;6255395;22;20037;-88
2022/06/10 17:32:00;;;;;;;2.92;0.70;;;20.20;99.90;;;;;;6255805;22;20047;-90
2022/06/10 17:34:26;;;;;;;3.17;0.90;;;20.20;99.90;;;;;;6255315;22;20023;-90
2022/06/10 17:36:52;;;;;;;2.72;0.70;;;20.20;99.90;;;;;;6281401;22;20428;-88
2022/06/10 17:39:18;;;;;;;2.85;0.90;;;20.20;99.90;;;;;;6255596;22;20019;-88
2022/06/10 17:41:48;;;;;;;2.83;1.00;;;20.20;99.90;;;;;;6255686;22;20072;-91
2022/06/10 17:44:23;;;;;;;1.73;0.85;;;20.20;99.90;;;;;;6255621;22;20019;-90
2022/06/10 17:46:54;;;;;;;1.95;0.80;;;20.20;99.90;;;;;;6255496;22;20025;-93
2022/06/10 17:49:27;;;;;;;2.70;0.50;;;20.20;99.90;;;;;;6255911;22;20077;-89
2022/06/10 17:52:04;;;;;;;2.47;0.60;;;20.20;99.90;;;;;;6284561;22;20053;-90
2022/06/10 17:54:32;;;;;;;2.88;0.55;;;20.20;99.90;;;;;;6255553;22;20026;-91
2022/06/10 17:56:58;;;;;;;1.63;0.50;;;20.10;99.90;;;;;;6255178;22;20094;-88
2022/06/10 17:59:35;;;;;;;1.75;0.50;;;20.10;99.90;;;;;;6280522;22;20160;-88
2022/06/10 18:02:01;;;;;;;1.25;0.50;;;20.10;99.90;;;;;;6253459;22;20464;-90
2022/06/10 18:04:27;;;;;;;0.60;0.38;;;20.10;99.90;;;;;;6281016;22;20076;-92
2022/06/10 18:06:52;;;;;;;2.58;0.50;;;20.10;99.90;;;;;;6255154;22;20501;-93
2022/06/10 18:09:18;;;;;;;2.13;0.70;;;20.10;99.90;;;;;;6255069;22;20046;-92
2022/06/10 18:11:47;;;;;;;1.92;0.82;;;20.10;99.90;;;;;;6254725;22;20043;-92
2022/06/10 18:17:34;;;;;;;3.22;0.60;;;20.10;99.90;;;;;;6280531;22;20375;-90
2022/06/10 19:24:02;;;;;;;1.98;0.95;;;19.30;99.90;;;;;;6307442;22;20016;-91
2022/06/10 19:26:31;;;;;;;2.33;0.80;;;19.30;99.90;;;;;;6258305;22;20028;-92
2022/06/10 19:29:03;;;;;;;2.20;0.90;;;19.30;99.90;;;;;;6270939;22;20077;-93
2022/06/10 19:31:36;;;;;;;2.63;0.90;;;19.20;99.90;;;;;;6272322;22;20039;-93